Time;durP1;ratioP1;P1;durP2;ratioP2;P2;SDS_P1;SDS_P2;PMS_P1;PMS_P2;Temp;Humidity;BMP_temperature;BMP_pressure;BME280_temperature;BME280_humidity;BME280_pressure;Samples;Min_cycle;Max_cycle;Signal;HPM_P1;HPM_P2
2021/06/10 00:01:33;;;;;;;0.70;0.68;;;24.30;53.70;;;;;;5012841;28;20029;-62
2021/06/10 00:03:59;;;;;;;0.95;0.70;;;24.70;54.00;;;;;;5010793;28;20508;-62
2021/06/10 00:06:24;;;;;;;1.50;0.80;;;24.70;54.00;;;;;;5027351;28;20124;-62
2021/06/10 00:08:50;;;;;;;1.75;0.98;;;24.40;54.50;;;;;;5012496;28;20058;-62
2021/06/10 00:11:15;;;;;;;0.95;0.85;;;24.90;54.10;;;;;;5012354;28;20065;-62
2021/06/10 00:13:41;;;;;;;1.30;1.00;;;24.20;53.80;;;;;;5014487;28;20455;-62
2021/06/10 00:16:07;;;;;;;1.00;0.75;;;24.20;53.90;;;;;;5015818;28;20032;-62
2021/06/10 00:18:33;;;;;;;0.82;0.60;;;24.20;53.90;;;;;;5016060;28;20105;-62
2021/06/10 00:20:58;;;;;;;0.70;0.70;;;24.20;53.90;;;;;;5015669;28;20397;-62
2021/06/10 00:23:24;;;;;;;0.70;0.70;;;24.60;54.10;;;;;;5015934;28;20018;-62
2021/06/10 00:25:49;;;;;;;1.02;0.98;;;24.20;53.90;;;;;;5015881;28;20660;-62
2021/06/10 00:28:15;;;;;;;1.35;1.10;;;24.80;54.30;;;;;;5015525;28;20083;-62
2021/06/10 00:30:41;;;;;;;1.27;0.93;;;24.80;54.30;;;;;;5015764;28;20100;-62
2021/06/10 00:33:06;;;;;;;0.98;0.90;;;24.70;54.30;;;;;;5015737;28;20105;-62
2021/06/10 00:35:33;;;;;;;1.25;0.90;;;24.20;54.00;;;;;;5015405;28;20033;-62
2021/06/10 00:38:00;;;;;;;0.73;0.73;;;24.20;54.10;;;;;;5015671;28;20022;-62
2021/06/10 00:40:28;;;;;;;1.42;1.10;;;24.20;54.10;;;;;;5015408;28;20101;-62
2021/06/10 00:42:54;;;;;;;2.20;1.02;;;24.50;80.00;;;;;;5015557;28;20088;-62
2021/06/10 00:45:21;;;;;;;0.98;0.98;;;24.20;54.20;;;;;;5015557;28;20022;-62
2021/06/10 00:47:51;;;;;;;0.98;0.80;;;24.30;54.30;;;;;;5015503;28;20113;-62
2021/06/10 00:50:23;;;;;;;1.70;0.85;;;24.20;54.20;;;;;;5015140;28;20028;-62
2021/06/10 00:52:49;;;;;;;1.27;0.82;;;24.50;54.40;;;;;;5015290;28;20030;-62
2021/06/10 00:55:15;;;;;;;1.33;0.98;;;24.20;54.30;;;;;;5013783;28;20018;-62
2021/06/10 00:57:42;;;;;;;0.80;0.80;;;24.20;54.30;;;;;;5015334;28;20018;-62
2021/06/10 01:00:13;;;;;;;1.52;0.95;;;24.60;54.60;;;;;;5015286;28;20018;-62
2021/06/10 01:02:39;;;;;;;0.70;0.70;;;24.20;54.30;;;;;;5015200;28;20026;-62
2021/06/10 01:05:08;;;;;;;1.35;0.85;;;24.60;54.60;;;;;;5014741;28;20145;-62
2021/06/10 01:08:00;;;;;;;1.05;0.95;;;24.10;54.30;;;;;;5013839;28;20030;-62
2021/06/10 01:10:40;;;;;;;0.90;0.90;;;24.10;54.30;;;;;;5015017;28;20060;-63
2021/06/10 01:13:18;;;;;;;1.10;1.03;;;24.70;54.70;;;;;;5014866;28;20037;-62
2021/06/10 01:15:46;;;;;;;1.00;1.00;;;24.10;54.40;;;;;;5015002;28;20500;-62
2021/06/10 01:18:14;;;;;;;1.08;0.98;;;24.10;54.40;;;;;;5014618;28;20029;-62
2021/06/10 01:20:43;;;;;;;1.08;0.98;;;24.60;54.80;;;;;;5015000;28;20140;-62
2021/06/10 01:23:21;;;;;;;2.15;0.90;;;24.10;54.60;;;;;;5014902;28;20028;-62
2021/06/10 01:26:19;;;;;;;1.05;0.95;;;24.10;54.50;;;;;;5014531;28;20088;-62
2021/06/10 01:28:46;;;;;;;1.33;1.00;;;24.10;54.50;;;;;;5014480;28;20018;-62
2021/06/10 01:31:14;;;;;;;0.80;0.70;;;24.70;54.90;;;;;;5014703;28;20393;-62
2021/06/10 01:33:49;;;;;;;1.52;1.10;;;24.10;54.60;;;;;;5014371;28;20097;-62
2021/06/10 01:36:21;;;;;;;2.58;1.25;;;24.10;54.50;;;;;;5014400;28;20026;-62
2021/06/10 01:38:52;;;;;;;0.77;0.73;;;24.30;54.70;;;;;;5014601;28;20026;-62
2021/06/10 01:41:19;;;;;;;;;;;24.10;54.60;;;;;;5014749;28;20064;-62
2021/06/10 01:43:47;;;;;;;0.70;0.70;;;24.70;55.00;;;;;;5014487;28;20356;-62
2021/06/10 01:46:14;;;;;;;0.98;0.88;;;24.20;54.70;;;;;;5014364;28;20033;-62
2021/06/10 01:48:49;;;;;;;0.90;0.73;;;24.00;54.60;;;;;;4996545;28;20014;-62
2021/06/10 01:51:16;;;;;;;0.90;0.80;;;24.70;55.00;;;;;;5014268;28;20030;-62
2021/06/10 01:53:45;;;;;;;1.10;1.00;;;24.10;54.70;;;;;;5014229;28;20022;-62
2021/06/10 01:56:12;;;;;;;0.65;0.65;;;24.10;55.20;;;;;;5014168;28;20021;-62
2021/06/10 01:58:39;;;;;;;2.03;1.10;;;24.40;54.80;;;;;;5013908;28;20025;-62
2021/06/10 02:01:07;;;;;;;0.90;0.90;;;24.50;54.80;;;;;;5014085;28;20419;-62
2021/06/10 02:03:34;;;;;;;1.15;1.00;;;24.40;54.70;;;;;;5013855;28;20049;-62
2021/06/10 02:06:01;;;;;;;1.10;1.00;;;24.40;54.70;;;;;;5013724;28;20540;-62
2021/06/10 02:08:27;;;;;;;1.42;0.80;;;24.50;54.80;;;;;;5013995;28;20030;-62
2021/06/10 02:10:55;;;;;;;2.15;1.15;;;24.50;54.80;;;;;;5013911;28;20045;-62
2021/06/10 02:13:24;;;;;;;0.85;0.85;;;24.00;54.60;;;;;;5013855;28;20361;-62
2021/06/10 02:15:52;;;;;;;0.98;0.80;;;24.40;54.70;;;;;;5013627;28;20102;-62
2021/06/10 02:18:18;;;;;;;0.88;0.88;;;24.00;54.50;;;;;;5013830;28;20132;-62
2021/06/10 02:20:44;;;;;;;1.80;0.98;;;24.00;55.10;;;;;;5013751;28;20045;-62
2021/06/10 02:23:10;;;;;;;1.25;1.17;;;24.00;54.50;;;;;;5013736;28;20029;-62
2021/06/10 02:25:36;;;;;;;1.08;0.95;;;24.00;54.50;;;;;;5013644;28;20025;-62
2021/06/10 02:28:02;;;;;;;1.27;0.90;;;24.40;54.80;;;;;;5013391;28;20377;-62
2021/06/10 02:30:28;;;;;;;1.30;1.13;;;24.40;54.70;;;;;;5013230;28;20038;-62
2021/06/10 02:32:54;;;;;;;1.10;1.00;;;24.10;54.60;;;;;;5013345;28;20397;-62
2021/06/10 02:35:20;;;;;;;1.65;1.00;;;24.00;54.50;;;;;;5012860;28;20041;-62
2021/06/10 02:37:48;;;;;;;1.13;0.90;;;23.90;54.50;;;;;;5013430;28;20469;-63
2021/06/10 02:40:17;;;;;;;1.15;0.80;;;24.00;54.50;;;;;;5013401;28;20026;-62
2021/06/10 02:42:44;;;;;;;0.90;0.82;;;24.50;54.80;;;;;;5013355;28;20431;-62
2021/06/10 02:45:11;;;;;;;0.77;0.77;;;24.30;54.70;;;;;;5013404;28;20108;-62
2021/06/10 02:47:38;;;;;;;0.95;0.85;;;23.90;54.40;;;;;;5013069;28;20092;-62
2021/06/10 02:50:06;;;;;;;0.77;0.77;;;23.90;54.50;;;;;;5013233;28;20042;-62
2021/06/10 02:52:34;;;;;;;0.80;0.80;;;24.00;54.40;;;;;;5012902;28;20497;-62
2021/06/10 02:55:00;;;;;;;0.80;0.80;;;24.10;54.50;;;;;;5028149;28;20041;-63
2021/06/10 02:57:27;;;;;;;1.15;0.95;;;23.90;54.40;;;;;;5013161;28;20424;-62
2021/06/10 02:59:54;;;;;;;1.20;0.98;;;23.90;54.40;;;;;;5012937;28;20030;-63
2021/06/10 03:02:20;;;;;;;1.20;1.10;;;23.90;54.40;;;;;;5012800;28;20504;-63
2021/06/10 03:04:47;;;;;;;1.00;0.98;;;23.80;54.30;;;;;;5012601;28;20096;-63
2021/06/10 03:07:15;;;;;;;0.90;0.90;;;23.90;54.30;;;;;;5012786;28;20592;-63
2021/06/10 03:09:42;;;;;;;0.95;0.80;;;23.90;54.30;;;;;;5011487;28;20022;-63
2021/06/10 03:12:10;;;;;;;0.75;0.40;;;23.90;54.30;;;;;;5012951;28;20066;-63
2021/06/10 03:14:37;;;;;;;1.23;1.13;;;23.90;54.20;;;;;;5011772;28;20065;-63
2021/06/10 03:17:03;;;;;;;0.60;0.60;;;23.90;54.20;;;;;;5012702;28;20034;-63
2021/06/10 03:19:29;;;;;;;1.63;0.80;;;23.90;54.10;;;;;;5012734;28;20025;-63
2021/06/10 03:21:55;;;;;;;1.40;0.98;;;24.00;54.20;;;;;;5012929;28;20033;-63
2021/06/10 03:24:21;;;;;;;1.70;0.90;;;24.20;54.30;;;;;;5012904;28;20033;-63
2021/06/10 03:26:48;;;;;;;0.98;0.85;;;23.90;54.20;;;;;;5012891;28;20018;-63
2021/06/10 03:29:13;;;;;;;1.65;0.80;;;23.80;54.00;;;;;;5012569;28;20034;-63
2021/06/10 03:31:41;;;;;;;0.80;0.75;;;23.90;54.20;;;;;;5012767;28;20034;-63
2021/06/10 03:34:06;;;;;;;1.00;0.88;;;24.00;54.20;;;;;;5012843;28;20022;-63
2021/06/10 03:36:32;;;;;;;1.08;0.90;;;24.40;54.40;;;;;;5012796;28;20075;-63
2021/06/10 03:38:59;;;;;;;0.80;0.80;;;23.70;54.80;;;;;;5012756;28;20018;-63
2021/06/10 03:41:26;;;;;;;0.95;0.95;;;23.80;54.10;;;;;;5011622;28;20026;-62
2021/06/10 03:43:52;;;;;;;1.38;0.98;;;24.10;54.30;;;;;;5012541;28;20040;-62
2021/06/10 03:46:19;;;;;;;1.00;0.80;;;24.30;54.50;;;;;;5012764;28;20026;-63
2021/06/10 03:48:45;;;;;;;0.80;0.80;;;24.10;54.40;;;;;;5015018;28;20408;-63
2021/06/10 03:51:15;;;;;;;0.80;0.75;;;24.00;54.40;;;;;;5016299;28;20036;-62
2021/06/10 03:53:48;;;;;;;0.70;0.70;;;23.90;54.30;;;;;;5016558;28;20360;-62
2021/06/10 03:56:14;;;;;;;1.52;1.00;;;23.90;54.30;;;;;;5016253;28;20033;-63
2021/06/10 03:58:40;;;;;;;0.60;0.60;;;23.80;54.30;;;;;;5016246;28;20026;-63
2021/06/10 04:01:05;;;;;;;1.58;1.15;;;24.20;54.50;;;;;;5016175;28;20053;-63
2021/06/10 04:03:31;;;;;;;2.15;0.70;;;23.90;54.30;;;;;;5016360;28;20489;-62
2021/06/10 04:05:57;;;;;;;1.08;0.90;;;24.10;54.50;;;;;;5016431;28;20459;-63
2021/06/10 04:08:23;;;;;;;0.50;0.50;;;23.90;54.50;;;;;;5016340;28;20029;-63
2021/06/10 04:10:48;;;;;;;1.08;0.70;;;23.80;54.30;;;;;;5015983;28;20121;-62
2021/06/10 04:13:14;;;;;;;2.33;0.70;;;24.10;54.50;;;;;;5016325;28;20026;-63
2021/06/10 04:15:40;;;;;;;0.68;0.68;;;23.80;54.30;;;;;;5016533;28;20044;-63
2021/06/10 04:18:06;;;;;;;1.35;0.70;;;23.80;54.30;;;;;;5015982;28;20350;-63
2021/06/10 04:20:31;;;;;;;1.70;0.85;;;23.80;54.40;;;;;;5015954;28;20076;-63
2021/06/10 04:22:57;;;;;;;0.60;0.60;;;23.60;54.30;;;;;;5015883;28;20113;-63
2021/06/10 04:25:23;;;;;;;0.73;0.60;;;23.70;54.40;;;;;;5015842;28;20030;-63
2021/06/10 04:27:49;;;;;;;1.23;0.70;;;24.00;54.50;;;;;;5015776;28;20022;-63
2021/06/10 04:30:16;;;;;;;1.45;0.82;;;23.70;54.30;;;;;;5015970;28;20346;-63
2021/06/10 04:32:45;;;;;;;1.30;0.63;;;23.80;54.40;;;;;;5015883;28;20055;-63
2021/06/10 04:35:11;;;;;;;1.50;0.80;;;23.90;54.60;;;;;;5015690;28;20017;-63
2021/06/10 04:37:36;;;;;;;0.68;0.55;;;23.80;54.40;;;;;;5015574;28;20038;-62
2021/06/10 04:40:04;;;;;;;0.73;0.57;;;23.90;54.50;;;;;;5015759;28;20045;-63
2021/06/10 04:42:30;;;;;;;1.23;0.60;;;23.80;54.40;;;;;;5015788;28;20373;-62
2021/06/10 04:44:55;;;;;;;1.48;0.85;;;23.70;54.30;;;;;;5015488;28;20484;-63
2021/06/10 04:47:21;;;;;;;0.73;0.70;;;22.80;53.90;;;;;;5015326;28;20030;-62
2021/06/10 04:49:47;;;;;;;0.73;0.60;;;23.80;54.40;;;;;;5015450;28;20091;-62
2021/06/10 04:52:12;;;;;;;1.02;0.50;;;23.80;54.50;;;;;;5015033;28;20052;-62
2021/06/10 04:54:38;;;;;;;1.00;0.50;;;23.70;55.00;;;;;;5015158;28;20137;-63
2021/06/10 04:57:04;;;;;;;1.02;0.75;;;23.50;54.40;;;;;;5015089;28;20058;-62
2021/06/10 04:59:30;;;;;;;1.35;0.88;;;23.70;54.50;;;;;;5014873;28;20438;-63
2021/06/10 05:01:56;;;;;;;0.63;0.55;;;23.70;54.60;;;;;;5015291;28;20037;-63
2021/06/10 05:04:22;;;;;;;0.60;0.60;;;23.70;54.80;;;;;;5014886;28;20034;-62
2021/06/10 05:06:50;;;;;;;0.70;0.57;;;23.60;54.70;;;;;;5015138;28;20022;-62
2021/06/10 05:09:16;;;;;;;0.47;0.47;;;23.70;54.90;;;;;;5014834;28;20024;-62
2021/06/10 05:11:42;;;;;;;0.43;0.40;;;23.80;54.90;;;;;;5014697;28;20532;-63
2021/06/10 05:14:07;;;;;;;2.45;0.68;;;23.70;54.80;;;;;;5014758;28;20590;-63
2021/06/10 05:16:33;;;;;;;2.33;0.70;;;23.90;54.80;;;;;;5013255;28;20030;-61
2021/06/10 05:18:59;;;;;;;1.73;0.50;;;23.70;54.30;;;;;;5014687;28;20030;-61
2021/06/10 05:21:24;;;;;;;0.63;0.63;;;23.70;54.50;;;;;;5013764;28;20464;-61
2021/06/10 05:30:34;;;;;;;3.88;1.10;;;23.70;54.60;;;;;;5014915;28;20582;-61
2021/06/10 05:32:59;;;;;;;2.65;0.60;;;24.30;55.40;;;;;;5013511;28;20030;-61
2021/06/10 05:35:25;;;;;;;1.20;0.50;;;24.00;54.90;;;;;;5014347;28;20022;-61
2021/06/10 05:37:51;;;;;;;0.82;0.70;;;23.70;54.90;;;;;;5014540;28;20133;-61
2021/06/10 05:40:17;;;;;;;0.50;0.50;;;23.70;55.10;;;;;;5014228;28;20025;-61
2021/06/10 05:42:43;;;;;;;1.35;0.77;;;23.80;79.60;;;;;;5014247;28;20034;-61
2021/06/10 05:45:09;;;;;;;0.82;0.68;;;23.70;55.30;;;;;;5014276;28;20022;-61
2021/06/10 05:47:35;;;;;;;1.10;0.63;;;23.70;55.20;;;;;;5014013;28;20038;-61
2021/06/10 05:50:01;;;;;;;0.65;0.65;;;23.70;54.60;;;;;;5029121;28;20156;-60
2021/06/10 05:52:27;;;;;;;1.15;0.70;;;23.70;54.20;;;;;;5014280;28;20441;-60
2021/06/10 05:54:53;;;;;;;1.95;0.68;;;23.60;54.20;;;;;;5014266;28;20114;-60
2021/06/10 05:57:19;;;;;;;2.03;0.90;;;23.70;54.20;;;;;;5013831;28;20385;-60
2021/06/10 05:59:47;;;;;;;1.27;0.80;;;23.80;54.60;;;;;;5012634;28;20022;-60
2021/06/10 06:02:14;;;;;;;0.93;0.60;;;23.80;79.10;;;;;;5012713;28;20033;-60
2021/06/10 06:04:40;;;;;;;0.70;0.57;;;23.70;54.90;;;;;;5013641;28;20081;-60
2021/06/10 06:07:06;;;;;;;2.63;0.50;;;24.00;55.30;;;;;;5012482;28;20033;-60
2021/06/10 06:09:32;;;;;;;2.00;0.70;;;23.70;55.40;;;;;;5012544;28;20064;-60
2021/06/10 06:11:57;;;;;;;2.50;0.95;;;24.10;55.20;;;;;;5012903;28;20046;-60
2021/06/10 06:14:30;;;;;;;1.27;0.90;;;24.00;55.10;;;;;;5013787;28;20093;-60
2021/06/10 06:16:57;;;;;;;1.95;0.80;;;24.10;54.90;;;;;;5013526;28;20034;-59
2021/06/10 06:19:22;;;;;;;0.93;0.75;;;23.70;54.60;;;;;;5013768;28;20084;-59
2021/06/10 06:21:48;;;;;;;1.50;0.80;;;24.20;54.60;;;;;;5013828;28;20425;-59
2021/06/10 06:24:14;;;;;;;1.65;1.05;;;23.70;54.30;;;;;;5013735;28;20014;-62
2021/06/10 06:26:39;;;;;;;2.15;0.70;;;24.10;54.60;;;;;;5013404;28;20397;-62
2021/06/10 06:29:06;;;;;;;3.75;0.85;;;23.70;54.50;;;;;;5013642;28;20058;-62
2021/06/10 06:31:32;;;;;;;1.08;0.70;;;23.70;54.60;;;;;;5013519;28;20030;-62
2021/06/10 06:33:58;;;;;;;6.10;0.90;;;24.40;55.50;;;;;;5013705;28;20026;-62
2021/06/10 06:36:24;;;;;;;2.20;0.65;;;23.70;54.80;;;;;;5013642;28;20022;-62
2021/06/10 06:38:50;;;;;;;3.47;0.85;;;23.70;54.70;;;;;;5013522;28;20104;-62
2021/06/10 06:41:15;;;;;;;3.95;1.02;;;23.70;54.70;;;;;;5013597;28;20173;-62
2021/06/10 06:43:41;;;;;;;3.03;1.10;;;23.70;54.70;;;;;;5012055;28;20026;-62
2021/06/10 06:46:09;;;;;;;1.35;0.68;;;23.70;55.00;;;;;;5013465;28;20389;-62
2021/06/10 06:48:34;;;;;;;2.33;1.13;;;23.80;55.10;;;;;;5013206;28;20384;-62
2021/06/10 06:51:00;;;;;;;2.25;0.70;;;23.50;54.90;;;;;;5013282;28;20022;-62
2021/06/10 06:53:29;;;;;;;6.45;0.95;;;23.70;54.90;;;;;;5012948;28;20508;-61
2021/06/10 07:06:41;;;;;;;1.08;0.65;;;23.70;54.40;;;;;;4990187;28;20042;-61
2021/06/10 07:09:07;;;;;;;1.63;0.80;;;23.70;54.40;;;;;;5012564;28;20095;-61
2021/06/10 07:11:34;;;;;;;2.13;1.00;;;24.00;54.60;;;;;;5013015;28;20038;-61
2021/06/10 07:14:00;;;;;;;2.67;1.33;;;23.70;54.30;;;;;;5013160;28;20106;-61
2021/06/10 07:16:25;;;;;;;2.05;0.90;;;24.10;54.50;;;;;;5012808;28;20050;-61
2021/06/10 07:18:51;;;;;;;3.25;1.08;;;24.00;54.50;;;;;;5013020;28;20024;-61
2021/06/10 07:21:16;;;;;;;1.10;1.00;;;23.70;54.50;;;;;;5012986;28;20531;-61
2021/06/10 07:23:42;;;;;;;0.65;0.45;;;23.70;54.40;;;;;;5011310;28;20551;-61
2021/06/10 07:26:07;;;;;;;1.23;0.70;;;24.30;55.10;;;;;;5012846;28;20025;-62
2021/06/10 07:28:33;;;;;;;1.45;0.80;;;23.60;54.30;;;;;;5012992;28;20496;-62
2021/06/10 07:30:59;;;;;;;0.70;0.70;;;23.90;54.70;;;;;;5012511;28;20092;-62
2021/06/10 07:33:24;;;;;;;0.93;0.80;;;23.70;54.40;;;;;;5012621;28;20014;-64
2021/06/10 07:35:50;;;;;;;0.60;0.60;;;23.80;54.70;;;;;;5011442;28;20038;-64
2021/06/10 07:38:16;;;;;;;2.85;1.08;;;24.30;54.90;;;;;;5012565;28;20033;-64
2021/06/10 07:40:42;;;;;;;2.40;0.60;;;23.70;54.70;;;;;;5012608;28;20018;-64
2021/06/10 07:43:08;;;;;;;1.98;0.85;;;23.70;54.70;;;;;;5012534;28;20500;-65
2021/06/10 07:45:35;;;;;;;1.25;0.80;;;23.70;54.70;;;;;;5012946;28;20018;-64
2021/06/10 07:48:01;;;;;;;1.95;0.90;;;23.60;54.30;;;;;;5012819;28;20030;-64
2021/06/10 07:50:27;;;;;;;3.72;0.80;;;24.00;54.50;;;;;;5012423;28;20014;-64
2021/06/10 07:52:53;;;;;;;1.35;0.50;;;23.70;54.30;;;;;;5012581;28;20029;-64
2021/06/10 07:55:20;;;;;;;1.48;0.70;;;24.20;54.80;;;;;;5012775;28;20018;-64
2021/06/10 07:57:46;;;;;;;1.60;0.80;;;23.70;54.50;;;;;;5012726;28;20061;-64
2021/06/10 08:00:12;;;;;;;1.13;0.98;;;23.70;54.50;;;;;;5012323;28;20029;-64
2021/06/10 08:02:37;;;;;;;3.25;0.80;;;23.70;54.50;;;;;;5012590;28;20022;-65
2021/06/10 08:05:03;;;;;;;1.98;0.73;;;23.70;54.50;;;;;;5012149;28;20113;-64
2021/06/10 08:07:29;;;;;;;2.38;0.88;;;23.70;54.50;;;;;;5012282;28;20382;-64
2021/06/10 08:09:56;;;;;;;2.90;0.88;;;23.80;54.70;;;;;;5012371;28;20032;-64
2021/06/10 08:12:22;;;;;;;3.85;0.80;;;23.80;54.70;;;;;;5012437;28;20041;-64
2021/06/10 08:14:49;;;;;;;0.98;0.70;;;23.80;54.80;;;;;;5012531;28;20026;-64
2021/06/10 08:17:15;;;;;;;1.38;0.70;;;23.70;54.80;;;;;;5012503;28;20026;-64
2021/06/10 08:19:41;;;;;;;1.48;0.63;;;23.80;55.00;;;;;;5012777;28;20078;-64
2021/06/10 08:22:06;;;;;;;1.85;0.85;;;23.70;55.00;;;;;;5012519;28;20481;-64
2021/06/10 08:24:32;;;;;;;2.55;1.27;;;24.30;55.40;;;;;;5012251;28;20434;-64
2021/06/10 08:26:57;;;;;;;3.28;1.17;;;23.90;55.10;;;;;;5012422;28;20030;-64
2021/06/10 08:29:27;;;;;;;0.93;0.80;;;23.80;55.10;;;;;;5012355;28;20026;-64
2021/06/10 08:31:54;;;;;;;0.93;0.60;;;23.80;55.20;;;;;;5012368;28;20046;-64
2021/06/10 08:34:20;;;;;;;1.00;0.88;;;23.80;55.20;;;;;;5013754;28;20280;-64
2021/06/10 08:36:46;;;;;;;1.95;0.80;;;23.80;55.20;;;;;;5015833;28;20030;-64
2021/06/10 08:39:12;;;;;;;0.95;0.70;;;23.90;55.30;;;;;;5015486;28;20018;-64
2021/06/10 08:41:38;;;;;;;1.45;0.73;;;23.80;55.20;;;;;;5015575;28;20193;-63
2021/06/10 08:44:04;;;;;;;1.38;1.23;;;23.80;55.20;;;;;;5015706;28;20018;-64
2021/06/10 08:46:32;;;;;;;2.53;0.90;;;23.90;55.20;;;;;;5015664;28;20547;-63
2021/06/10 08:48:58;;;;;;;1.20;0.90;;;24.30;55.50;;;;;;5014101;28;20030;-61
2021/06/10 08:51:23;;;;;;;0.60;0.60;;;23.90;55.20;;;;;;5015117;28;20500;-61
2021/06/10 08:53:50;;;;;;;1.95;0.80;;;24.20;55.30;;;;;;5015263;28;20032;-63
2021/06/10 08:56:16;;;;;;;1.27;0.85;;;;;;;;;;5015277;28;20041;-63
2021/06/10 08:58:42;;;;;;;1.98;0.80;;;24.10;54.40;;;;;;5015248;28;20026;-63
2021/06/10 09:01:12;;;;;;;2.00;0.68;;;24.50;55.00;;;;;;5015215;28;20037;-63
2021/06/10 09:03:39;;;;;;;0.88;0.85;;;24.10;54.50;;;;;;5015347;28;20026;-64
2021/06/10 09:06:17;;;;;;;2.20;0.98;;;24.20;54.30;;;;;;5015362;28;20113;-64
2021/06/10 09:08:45;;;;;;;6.45;1.02;;;24.20;53.90;;;;;;5015019;28;20129;-63
2021/06/10 09:11:17;;;;;;;2.50;1.20;;;24.20;53.90;;;;;;5015059;28;20049;-62
2021/06/10 09:13:48;;;;;;;1.98;0.82;;;24.30;53.70;;;;;;5014856;28;20022;-61
2021/06/10 09:16:32;;;;;;;2.80;0.90;;;24.30;53.60;;;;;;5014803;28;20033;-62
2021/06/10 09:18:59;;;;;;;1.17;0.85;;;24.30;53.40;;;;;;5014820;28;20034;-61
2021/06/10 09:21:36;;;;;;;5.05;1.48;;;24.40;53.30;;;;;;5015104;28;20025;-61
2021/06/10 09:24:35;;;;;;;1.85;1.10;;;24.50;53.30;;;;;;5015009;28;20026;-61
2021/06/10 09:27:03;;;;;;;2.55;1.02;;;24.40;53.00;;;;;;4992306;28;20433;-60
2021/06/10 09:29:51;;;;;;;2.75;1.50;;;24.50;52.80;;;;;;5014459;28;20477;-61
2021/06/10 09:32:30;;;;;;;3.95;1.17;;;24.60;52.40;;;;;;5013184;28;20095;-61
2021/06/10 09:34:57;;;;;;;2.97;1.13;;;24.90;52.30;;;;;;5014675;28;20022;-61
2021/06/10 09:37:39;;;;;;;2.13;1.17;;;24.50;51.90;;;;;;5014369;28;20032;-61
2021/06/10 09:40:11;;;;;;;4.20;1.10;;;24.30;51.40;;;;;;5014579;28;20026;-61
2021/06/10 09:42:42;;;;;;;2.58;1.35;;;24.50;50.90;;;;;;5014603;28;20022;-62
2021/06/10 09:45:11;;;;;;;2.83;1.40;;;24.80;50.70;;;;;;5013648;28;20030;-65
2021/06/10 09:47:51;;;;;;;2.70;1.30;;;24.60;50.60;;;;;;5014354;28;20060;-63
2021/06/10 09:50:43;;;;;;;1.85;0.93;;;24.70;50.50;;;;;;5014435;28;20018;-64
2021/06/10 09:53:17;;;;;;;1.88;0.93;;;24.70;50.50;;;;;;5014142;28;20473;-65
2021/06/10 09:55:55;;;;;;;4.25;1.00;;;24.70;50.40;;;;;;5012808;28;20030;-63
2021/06/10 09:58:40;;;;;;;2.20;1.00;;;24.80;50.40;;;;;;5014314;28;20080;-64
2021/06/10 10:01:13;;;;;;;1.10;1.00;;;24.80;50.20;;;;;;5014020;28;20022;-64
2021/06/10 10:03:41;;;;;;;1.35;0.88;;;24.80;50.20;;;;;;5013933;28;20500;-64
2021/06/10 10:06:20;;;;;;;2.88;1.17;;;24.90;50.20;;;;;;5014124;28;20108;-64
2021/06/10 10:08:48;;;;;;;3.35;0.85;;;24.90;50.20;;;;;;5013572;28;20049;-64
2021/06/10 10:11:14;;;;;;;1.15;0.95;;;25.50;50.60;;;;;;5013943;28;20056;-64
2021/06/10 10:13:41;;;;;;;2.35;0.82;;;24.90;50.20;;;;;;5014037;28;20054;-64
2021/06/10 10:16:08;;;;;;;1.90;0.90;;;25.10;50.30;;;;;;5014078;28;20033;-64
2021/06/10 10:18:34;;;;;;;1.85;0.80;;;25.00;50.80;;;;;;5013798;28;20413;-63
2021/06/10 10:21:01;;;;;;;1.33;0.82;;;25.00;50.10;;;;;;5013717;28;20033;-64
2021/06/10 10:23:26;;;;;;;1.95;1.08;;;25.00;50.10;;;;;;5013902;28;20018;-64
2021/06/10 10:25:57;;;;;;;3.15;1.15;;;25.10;73.60;;;;;;5013165;28;20567;-64
2021/06/10 10:28:30;;;;;;;3.03;1.08;;;25.00;50.10;;;;;;5013212;28;20423;-64
2021/06/10 10:30:57;;;;;;;0.95;0.70;;;25.00;50.00;;;;;;5013416;28;20108;-64
2021/06/10 10:33:25;;;;;;;2.70;0.90;;;25.10;50.20;;;;;;5013632;28;20065;-63
2021/06/10 10:36:00;;;;;;;1.15;0.80;;;25.10;50.20;;;;;;5013684;28;20026;-64
2021/06/10 10:38:39;;;;;;;1.65;0.95;;;25.10;50.80;;;;;;5013641;28;20037;-63
2021/06/10 10:41:10;;;;;;;2.13;0.90;;;25.10;50.10;;;;;;5013613;28;20048;-64
2021/06/10 10:43:36;;;;;;;2.13;0.73;;;25.10;50.20;;;;;;5013568;28;20022;-64
2021/06/10 10:46:31;;;;;;;1.58;1.15;;;25.10;50.20;;;;;;5013442;28;20026;-64
2021/06/10 10:48:59;;;;;;;0.98;0.98;;;25.20;50.30;;;;;;5004621;28;20095;-64
2021/06/10 10:51:34;;;;;;;0.77;0.63;;;25.10;50.20;;;;;;5013198;28;20038;-64
2021/06/10 10:54:01;;;;;;;1.20;0.77;;;25.20;50.20;;;;;;5013476;28;20112;-64
2021/06/10 10:56:41;;;;;;;3.45;1.00;;;25.20;50.30;;;;;;5013271;28;20080;-64
2021/06/10 10:59:09;;;;;;;1.50;0.93;;;25.30;50.30;;;;;;5013109;28;20021;-61
2021/06/10 11:01:35;;;;;;;0.70;0.65;;;25.20;50.20;;;;;;5013593;28;20116;-60
2021/06/10 11:04:00;;;;;;;2.83;1.00;;;25.30;50.20;;;;;;5013332;28;20117;-60
2021/06/10 11:06:28;;;;;;;4.88;1.10;;;25.20;50.20;;;;;;5012905;28;20108;-60
2021/06/10 11:08:57;;;;;;;2.45;0.75;;;25.20;50.30;;;;;;5012873;28;20057;-60
2021/06/10 11:11:55;;;;;;;1.40;0.90;;;25.40;50.30;;;;;;5012980;28;20056;-60
2021/06/10 11:14:42;;;;;;;1.90;0.80;;;25.30;50.20;;;;;;5013132;28;20022;-60
2021/06/10 11:17:29;;;;;;;1.13;0.90;;;25.30;50.20;;;;;;5013111;28;20025;-60
2021/06/10 11:20:07;;;;;;;1.23;0.88;;;25.30;50.30;;;;;;5012372;28;20523;-60
2021/06/10 11:22:35;;;;;;;2.45;0.90;;;25.30;50.20;;;;;;5011476;28;20018;-60
2021/06/10 11:25:05;;;;;;;2.13;1.10;;;25.30;50.20;;;;;;5013014;28;20379;-60
2021/06/10 11:27:35;;;;;;;1.13;1.05;;;25.40;50.30;;;;;;5012961;28;20014;-60
2021/06/10 11:30:25;;;;;;;4.68;0.88;;;25.30;50.20;;;;;;5012690;28;20137;-60
2021/06/10 11:33:07;;;;;;;1.50;0.75;;;25.30;50.30;;;;;;5007540;28;20034;-60
2021/06/10 11:35:45;;;;;;;1.38;1.20;;;25.30;50.20;;;;;;5012578;28;20628;-60
2021/06/10 11:38:19;;;;;;;3.80;1.10;;;25.40;50.30;;;;;;5012527;28;20022;-60
2021/06/10 11:40:50;;;;;;;1.50;1.10;;;25.40;50.30;;;;;;5012817;28;20018;-60
2021/06/10 11:43:16;;;;;;;;;;;25.40;50.30;;;;;;5013174;28;20410;-60
2021/06/10 11:45:43;;;;;;;1.08;0.88;;;25.50;50.30;;;;;;5012614;28;19906;-60
2021/06/10 11:48:10;;;;;;;1.27;1.17;;;25.40;50.30;;;;;;5012521;28;20385;-60
2021/06/10 11:50:38;;;;;;;2.72;1.10;;;25.40;73.80;;;;;;5011144;28;20022;-60
2021/06/10 11:53:11;;;;;;;1.05;0.95;;;25.40;50.30;;;;;;5012533;28;20066;-61
2021/06/10 11:55:39;;;;;;;1.80;1.17;;;25.40;50.30;;;;;;5027675;28;20042;-61
2021/06/10 11:58:10;;;;;;;1.95;0.95;;;25.50;50.40;;;;;;5012404;28;20428;-60
2021/06/10 12:00:44;;;;;;;4.00;1.02;;;25.40;50.40;;;;;;5012706;28;20029;-60
2021/06/10 12:03:12;;;;;;;1.83;1.00;;;25.70;50.60;;;;;;5012389;28;20474;-60
2021/06/10 12:05:50;;;;;;;1.27;1.17;;;25.50;50.50;;;;;;5012524;28;20114;-60
2021/06/10 12:08:19;;;;;;;3.45;1.13;;;25.50;50.50;;;;;;5012148;28;20129;-60
2021/06/10 12:11:03;;;;;;;3.20;1.10;;;25.60;50.60;;;;;;5016162;28;20030;-61
2021/06/10 12:13:40;;;;;;;3.10;0.90;;;25.50;50.60;;;;;;5016034;28;20022;-60
2021/06/10 12:16:07;;;;;;;2.83;0.95;;;25.50;50.60;;;;;;5016045;28;20112;-60
2021/06/10 12:18:35;;;;;;;1.67;1.00;;;25.50;50.70;;;;;;5015885;28;20392;-61
2021/06/10 12:21:04;;;;;;;1.70;1.27;;;25.60;50.80;;;;;;5015903;28;20022;-61
2021/06/10 12:23:36;;;;;;;2.45;1.38;;;25.60;50.90;;;;;;5015962;28;20096;-61
2021/06/10 12:26:05;;;;;;;1.90;1.10;;;25.60;50.90;;;;;;5014887;28;20370;-61
2021/06/10 12:28:48;;;;;;;1.05;0.95;;;25.60;50.90;;;;;;5015614;28;20053;-61
2021/06/10 12:31:20;;;;;;;1.92;0.90;;;25.60;50.90;;;;;;5015683;28;20042;-61
2021/06/10 12:33:47;;;;;;;1.13;1.02;;;25.60;50.90;;;;;;5015805;28;20026;-61
2021/06/10 12:36:14;;;;;;;4.07;1.00;;;25.60;51.00;;;;;;5015597;28;20076;-61
2021/06/10 12:38:40;;;;;;;1.67;1.00;;;26.00;51.20;;;;;;5015811;28;20026;-61
2021/06/10 12:41:23;;;;;;;1.90;1.20;;;25.60;51.00;;;;;;5014262;28;20050;-60
2021/06/10 12:43:51;;;;;;;2.33;1.25;;;25.60;51.00;;;;;;5015230;28;20100;-61
2021/06/10 12:46:17;;;;;;;3.97;1.27;;;25.60;51.00;;;;;;5015487;28;20029;-61
2021/06/10 12:48:54;;;;;;;3.42;1.10;;;25.60;51.00;;;;;;5013916;28;20030;-61
2021/06/10 12:51:28;;;;;;;4.03;1.25;;;25.70;51.10;;;;;;5015273;28;20029;-61
2021/06/10 12:54:02;;;;;;;2.22;1.15;;;25.70;51.10;;;;;;5015314;28;20122;-61
2021/06/10 12:56:38;;;;;;;6.28;1.20;;;25.60;51.00;;;;;;5015261;28;20021;-61
2021/06/10 12:59:05;;;;;;;1.58;1.30;;;25.60;51.10;;;;;;5015302;28;20080;-61
2021/06/10 13:01:31;;;;;;;1.63;1.40;;;25.70;51.30;;;;;;5014838;28;20385;-61
2021/06/10 13:03:57;;;;;;;2.40;1.20;;;25.60;51.20;;;;;;5015218;28;20105;-61
2021/06/10 13:06:28;;;;;;;2.92;1.40;;;25.70;51.20;;;;;;5013779;28;20509;-61
2021/06/10 13:08:54;;;;;;;2.50;1.05;;;25.80;74.60;;;;;;5030150;28;20359;-61
2021/06/10 13:11:20;;;;;;;2.45;1.27;;;25.60;51.20;;;;;;5015209;28;20069;-61
2021/06/10 13:13:49;;;;;;;1.90;1.30;;;25.80;51.40;;;;;;5014803;28;20079;-61